sensor_id;sensor_type;location;lat;lon;timestamp;temperature;humidity
12025;DHT22;6073;53.230;10.444;2023-08-17T00:01:50;18.10;99.90
12025;DHT22;6073;53.230;10.444;2023-08-17T00:04:16;18.00;99.90
12025;DHT22;6073;53.230;10.444;2023-08-17T00:06:42;18.00;99.90
12025;DHT22;6073;53.230;10.444;2023-08-17T00:09:08;18.00;99.90
12025;DHT22;6073;53.230;10.444;2023-08-17T00:11:34;18.00;99.90
12025;DHT22;6073;53.230;10.444;2023-08-17T00:14:00;17.90;99.90
12025;DHT22;6073;53.230;10.444;2023-08-17T00:16:25;17.90;99.90
12025;DHT22;6073;53.230;10.444;2023-08-17T00:18:51;17.90;99.90
12025;DHT22;6073;53.230;10.444;2023-08-17T00:21:17;17.90;99.90
12025;DHT22;6073;53.230;10.444;2023-08-17T00:23:43;17.90;99.90
12025;DHT22;6073;53.230;10.444;2023-08-17T00:26:09;17.90;99.90
12025;DHT22;6073;53.230;10.444;2023-08-17T00:28:34;17.80;99.90
12025;DHT22;6073;53.230;10.444;2023-08-17T00:31:00;17.80;99.90
12025;DHT22;6073;53.230;10.444;2023-08-17T00:33:26;17.80;99.90
12025;DHT22;6073;53.230;10.444;2023-08-17T00:35:51;17.80;99.90
12025;DHT22;6073;53.230;10.444;2023-08-17T00:38:17;17.70;99.90
12025;DHT22;6073;53.230;10.444;2023-08-17T00:40:42;17.70;99.90
12025;DHT22;6073;53.230;10.444;2023-08-17T00:43:08;17.70;99.90
12025;DHT22;6073;53.230;10.444;2023-08-17T00:45:35;17.70;99.90
12025;DHT22;6073;53.230;10.444;2023-08-17T00:48:00;17.70;99.90
12025;DHT22;6073;53.230;10.444;2023-08-17T00:50:27;17.70;99.90
12025;DHT22;6073;53.230;10.444;2023-08-17T00:52:53;17.60;99.90
12025;DHT22;6073;53.230;10.444;2023-08-17T00:55:19;17.60;99.90
12025;DHT22;6073;53.230;10.444;2023-08-17T00:57:45;17.60;99.90
12025;DHT22;6073;53.230;10.444;2023-08-17T01:00:12;17.60;99.90
12025;DHT22;6073;53.230;10.444;2023-08-17T01:02:42;17.50;99.90
12025;DHT22;6073;53.230;10.444;2023-08-17T01:05:08;17.50;99.90
12025;DHT22;6073;53.230;10.444;2023-08-17T01:07:34;17.50;99.90
12025;DHT22;6073;53.230;10.444;2023-08-17T01:10:00;17.60;99.90
12025;DHT22;6073;53.230;10.444;2023-08-17T01:12:31;17.60;99.90
12025;DHT22;6073;53.230;10.444;2023-08-17T01:15:08;17.60;99.90
12025;DHT22;6073;53.230;10.444;2023-08-17T01:17:46;17.60;99.90
12025;DHT22;6073;53.230;10.444;2023-08-17T01:20:14;17.70;99.90
12025;DHT22;6073;53.230;10.444;2023-08-17T01:22:42;17.70;99.90
12025;DHT22;6073;53.230;10.444;2023-08-17T01:25:10;17.70;99.90
12025;DHT22;6073;53.230;10.444;2023-08-17T01:27:41;17.70;99.90
12025;DHT22;6073;53.230;10.444;2023-08-17T01:30:11;17.70;99.90
12025;DHT22;6073;53.230;10.444;2023-08-17T01:32:55;17.70;99.90
12025;DHT22;6073;53.230;10.444;2023-08-17T01:35:32;17.70;99.90
12025;DHT22;6073;53.230;10.444;2023-08-17T01:38:02;17.60;99.90
12025;DHT22;6073;53.230;10.444;2023-08-17T01:40:32;17.60;99.90
12025;DHT22;6073;53.230;10.444;2023-08-17T01:42:58;17.60;99.90
12025;DHT22;6073;53.230;10.444;2023-08-17T01:45:25;17.50;99.90
12025;DHT22;6073;53.230;10.444;2023-08-17T01:47:50;17.50;99.90
12025;DHT22;6073;53.230;10.444;2023-08-17T01:50:16;17.50;99.90
12025;DHT22;6073;53.230;10.444;2023-08-17T01:52:41;17.60;99.90
12025;DHT22;6073;53.230;10.444;2023-08-17T01:55:07;17.60;99.90
12025;DHT22;6073;53.230;10.444;2023-08-17T01:57:33;17.60;99.90
12025;DHT22;6073;53.230;10.444;2023-08-17T02:00:00;17.60;99.90
12025;DHT22;6073;53.230;10.444;2023-08-17T02:02:26;17.60;99.90
12025;DHT22;6073;53.230;10.444;2023-08-17T02:04:51;17.60;99.90
12025;DHT22;6073;53.230;10.444;2023-08-17T02:07:17;17.60;99.90
12025;DHT22;6073;53.230;10.444;2023-08-17T02:09:42;17.60;99.90
12025;DHT22;6073;53.230;10.444;2023-08-17T02:12:08;17.60;99.90
12025;DHT22;6073;53.230;10.444;2023-08-17T02:14:34;17.60;99.90
12025;DHT22;6073;53.230;10.444;2023-08-17T02:16:59;17.60;99.90
12025;DHT22;6073;53.230;10.444;2023-08-17T02:19:25;17.60;99.90
12025;DHT22;6073;53.230;10.444;2023-08-17T02:21:50;17.60;99.90
12025;DHT22;6073;53.230;10.444;2023-08-17T02:24:16;17.60;99.90
12025;DHT22;6073;53.230;10.444;2023-08-17T02:26:42;17.70;99.90
12025;DHT22;6073;53.230;10.444;2023-08-17T02:29:07;17.60;99.90
12025;DHT22;6073;53.230;10.444;2023-08-17T02:31:33;17.60;99.90
12025;DHT22;6073;53.230;10.444;2023-08-17T02:33:58;17.60;99.90
12025;DHT22;6073;53.230;10.444;2023-08-17T02:36:30;17.60;99.90
12025;DHT22;6073;53.230;10.444;2023-08-17T02:38:56;17.60;99.90
12025;DHT22;6073;53.230;10.444;2023-08-17T02:41:21;17.50;99.90
12025;DHT22;6073;53.230;10.444;2023-08-17T02:43:47;17.50;99.90
12025;DHT22;6073;53.230;10.444;2023-08-17T02:46:12;17.50;99.90
12025;DHT22;6073;53.230;10.444;2023-08-17T02:48:38;17.60;99.90
12025;DHT22;6073;53.230;10.444;2023-08-17T02:51:03;17.60;99.90
12025;DHT22;6073;53.230;10.444;2023-08-17T02:53:29;17.60;99.90
12025;DHT22;6073;53.230;10.444;2023-08-17T02:55:54;17.50;99.90
12025;DHT22;6073;53.230;10.444;2023-08-17T02:58:20;17.50;99.90
12025;DHT22;6073;53.230;10.444;2023-08-17T03:00:45;17.50;99.90
12025;DHT22;6073;53.230;10.444;2023-08-17T03:03:11;17.50;99.90
12025;DHT22;6073;53.230;10.444;2023-08-17T03:05:36;17.50;99.90
12025;DHT22;6073;53.230;10.444;2023-08-17T03:08:02;17.50;99.90
12025;DHT22;6073;53.230;10.444;2023-08-17T03:10:27;17.50;99.90
12025;DHT22;6073;53.230;10.444;2023-08-17T03:12:53;17.60;99.90
12025;DHT22;6073;53.230;10.444;2023-08-17T03:15:18;17.50;99.90
12025;DHT22;6073;53.230;10.444;2023-08-17T03:17:44;17.60;99.90
12025;DHT22;6073;53.230;10.444;2023-08-17T03:20:09;17.60;99.90
12025;DHT22;6073;53.230;10.444;2023-08-17T03:22:35;17.50;99.90
12025;DHT22;6073;53.230;10.444;2023-08-17T03:25:01;17.50;99.90
12025;DHT22;6073;53.230;10.444;2023-08-17T03:27:26;17.50;99.90
12025;DHT22;6073;53.230;10.444;2023-08-17T03:29:54;17.50;99.90
12025;DHT22;6073;53.230;10.444;2023-08-17T03:32:19;17.40;99.90
12025;DHT22;6073;53.230;10.444;2023-08-17T03:34:45;17.40;99.90
12025;DHT22;6073;53.230;10.444;2023-08-17T03:37:10;17.40;99.90
12025;DHT22;6073;53.230;10.444;2023-08-17T03:39:36;17.40;99.90
12025;DHT22;6073;53.230;10.444;2023-08-17T03:42:01;17.40;99.90
12025;DHT22;6073;53.230;10.444;2023-08-17T03:44:27;17.30;99.90
12025;DHT22;6073;53.230;10.444;2023-08-17T03:46:52;17.30;99.90
12025;DHT22;6073;53.230;10.444;2023-08-17T03:49:18;17.30;99.90
12025;DHT22;6073;53.230;10.444;2023-08-17T03:51:43;17.40;99.90
12025;DHT22;6073;53.230;10.444;2023-08-17T03:54:09;17.50;99.90
12025;DHT22;6073;53.230;10.444;2023-08-17T03:56:34;17.40;99.90
12025;DHT22;6073;53.230;10.444;2023-08-17T03:59:00;17.30;99.90
12025;DHT22;6073;53.230;10.444;2023-08-17T04:01:25;17.30;99.90
12025;DHT22;6073;53.230;10.444;2023-08-17T04:03:51;17.30;99.90
12025;DHT22;6073;53.230;10.444;2023-08-17T04:06:16;17.30;99.90
12025;DHT22;6073;53.230;10.444;2023-08-17T04:08:42;17.20;99.90
12025;DHT22;6073;53.230;10.444;2023-08-17T04:11:07;17.20;99.90
12025;DHT22;6073;53.230;10.444;2023-08-17T04:13:33;17.10;99.90
12025;DHT22;6073;53.230;10.444;2023-08-17T04:15:59;17.10;99.90
12025;DHT22;6073;53.230;10.444;2023-08-17T04:18:24;17.10;99.90
12025;DHT22;6073;53.230;10.444;2023-08-17T04:20:50;17.10;99.90
12025;DHT22;6073;53.230;10.444;2023-08-17T04:23:15;17.00;99.90
12025;DHT22;6073;53.230;10.444;2023-08-17T04:25:43;17.00;99.90
12025;DHT22;6073;53.230;10.444;2023-08-17T04:28:08;17.00;99.90
12025;DHT22;6073;53.230;10.444;2023-08-17T04:30:34;17.00;99.90
12025;DHT22;6073;53.230;10.444;2023-08-17T04:32:59;17.00;99.90
12025;DHT22;6073;53.230;10.444;2023-08-17T04:35:25;17.00;99.90
12025;DHT22;6073;53.230;10.444;2023-08-17T04:37:50;17.00;99.90
12025;DHT22;6073;53.230;10.444;2023-08-17T04:40:16;16.90;99.90
12025;DHT22;6073;53.230;10.444;2023-08-17T04:42:42;16.90;99.90
12025;DHT22;6073;53.230;10.444;2023-08-17T04:45:08;16.90;99.90
12025;DHT22;6073;53.230;10.444;2023-08-17T04:47:33;16.80;99.90
12025;DHT22;6073;53.230;10.444;2023-08-17T04:49:59;16.80;99.90
12025;DHT22;6073;53.230;10.444;2023-08-17T04:52:24;16.70;99.90
12025;DHT22;6073;53.230;10.444;2023-08-17T04:54:50;16.70;99.90
12025;DHT22;6073;53.230;10.444;2023-08-17T04:57:15;16.70;99.90
12025;DHT22;6073;53.230;10.444;2023-08-17T04:59:41;16.70;99.90
12025;DHT22;6073;53.230;10.444;2023-08-17T05:02:06;16.70;99.90
12025;DHT22;6073;53.230;10.444;2023-08-17T05:04:32;16.70;99.90
12025;DHT22;6073;53.230;10.444;2023-08-17T05:06:57;16.70;99.90
12025;DHT22;6073;53.230;10.444;2023-08-17T05:09:23;16.70;99.90
12025;DHT22;6073;53.230;10.444;2023-08-17T05:11:49;16.70;99.90
12025;DHT22;6073;53.230;10.444;2023-08-17T05:14:14;16.70;99.90
12025;DHT22;6073;53.230;10.444;2023-08-17T05:16:40;16.70;99.90
12025;DHT22;6073;53.230;10.444;2023-08-17T05:19:05;16.70;99.90
12025;DHT22;6073;53.230;10.444;2023-08-17T05:21:31;16.70;99.90
12025;DHT22;6073;53.230;10.444;2023-08-17T05:23:56;16.60;99.90
12025;DHT22;6073;53.230;10.444;2023-08-17T05:26:22;16.50;99.90
12025;DHT22;6073;53.230;10.444;2023-08-17T05:28:48;16.50;99.90
12025;DHT22;6073;53.230;10.444;2023-08-17T05:31:13;16.40;99.90
12025;DHT22;6073;53.230;10.444;2023-08-17T05:33:39;16.40;99.90
12025;DHT22;6073;53.230;10.444;2023-08-17T05:36:06;16.40;99.90
12025;DHT22;6073;53.230;10.444;2023-08-17T05:38:32;16.40;99.90
12025;DHT22;6073;53.230;10.444;2023-08-17T05:40:58;16.40;99.90
12025;DHT22;6073;53.230;10.444;2023-08-17T05:43:24;16.30;99.90
12025;DHT22;6073;53.230;10.444;2023-08-17T05:45:50;16.30;99.90
12025;DHT22;6073;53.230;10.444;2023-08-17T05:48:19;16.30;99.90
12025;DHT22;6073;53.230;10.444;2023-08-17T05:50:48;16.20;99.90
12025;DHT22;6073;53.230;10.444;2023-08-17T05:53:14;16.20;99.90
12025;DHT22;6073;53.230;10.444;2023-08-17T05:55:39;16.20;99.90
12025;DHT22;6073;53.230;10.444;2023-08-17T05:58:05;16.20;99.90
12025;DHT22;6073;53.230;10.444;2023-08-17T06:00:30;16.20;99.90
12025;DHT22;6073;53.230;10.444;2023-08-17T06:02:56;16.10;99.90
12025;DHT22;6073;53.230;10.444;2023-08-17T06:05:27;16.10;99.90
12025;DHT22;6073;53.230;10.444;2023-08-17T06:07:54;16.00;99.90
12025;DHT22;6073;53.230;10.444;2023-08-17T06:10:19;15.90;99.90
12025;DHT22;6073;53.230;10.444;2023-08-17T06:12:46;15.80;99.90
12025;DHT22;6073;53.230;10.444;2023-08-17T06:15:13;15.80;99.90
12025;DHT22;6073;53.230;10.444;2023-08-17T06:17:39;15.70;99.90
12025;DHT22;6073;53.230;10.444;2023-08-17T06:20:05;15.50;99.90
12025;DHT22;6073;53.230;10.444;2023-08-17T06:22:30;15.40;99.90
12025;DHT22;6073;53.230;10.444;2023-08-17T06:24:56;15.20;99.90
12025;DHT22;6073;53.230;10.444;2023-08-17T06:27:21;15.10;99.90
12025;DHT22;6073;53.230;10.444;2023-08-17T06:29:47;15.10;99.90
12025;DHT22;6073;53.230;10.444;2023-08-17T06:32:13;15.10;99.90
12025;DHT22;6073;53.230;10.444;2023-08-17T06:34:38;15.10;99.90
12025;DHT22;6073;53.230;10.444;2023-08-17T06:37:04;15.00;99.90
12025;DHT22;6073;53.230;10.444;2023-08-17T06:39:30;15.00;99.90
12025;DHT22;6073;53.230;10.444;2023-08-17T06:41:55;14.90;99.90
12025;DHT22;6073;53.230;10.444;2023-08-17T06:44:21;14.90;99.90
12025;DHT22;6073;53.230;10.444;2023-08-17T06:46:46;15.00;99.90
12025;DHT22;6073;53.230;10.444;2023-08-17T06:49:12;14.90;99.90
12025;DHT22;6073;53.230;10.444;2023-08-17T06:51:38;14.90;99.90
12025;DHT22;6073;53.230;10.444;2023-08-17T06:54:04;14.90;99.90
12025;DHT22;6073;53.230;10.444;2023-08-17T06:56:30;14.90;99.90
12025;DHT22;6073;53.230;10.444;2023-08-17T06:58:56;14.90;99.90
12025;DHT22;6073;53.230;10.444;2023-08-17T07:01:21;14.90;99.90
12025;DHT22;6073;53.230;10.444;2023-08-17T07:03:47;14.80;99.90
12025;DHT22;6073;53.230;10.444;2023-08-17T07:06:13;14.80;99.90
12025;DHT22;6073;53.230;10.444;2023-08-17T07:08:38;14.80;99.90
12025;DHT22;6073;53.230;10.444;2023-08-17T07:11:04;14.80;99.90
12025;DHT22;6073;53.230;10.444;2023-08-17T07:13:31;14.80;99.90
12025;DHT22;6073;53.230;10.444;2023-08-17T07:15:57;14.80;99.90
12025;DHT22;6073;53.230;10.444;2023-08-17T07:18:22;14.80;99.90
12025;DHT22;6073;53.230;10.444;2023-08-17T07:20:48;14.80;99.90
12025;DHT22;6073;53.230;10.444;2023-08-17T07:23:15;14.80;99.90
12025;DHT22;6073;53.230;10.444;2023-08-17T07:25:40;14.80;99.90
12025;DHT22;6073;53.230;10.444;2023-08-17T07:28:06;14.80;99.90
12025;DHT22;6073;53.230;10.444;2023-08-17T07:30:31;14.80;99.90
12025;DHT22;6073;53.230;10.444;2023-08-17T07:32:57;14.80;99.90
12025;DHT22;6073;53.230;10.444;2023-08-17T07:35:22;14.80;99.90
12025;DHT22;6073;53.230;10.444;2023-08-17T07:37:48;14.80;99.90
12025;DHT22;6073;53.230;10.444;2023-08-17T07:40:14;14.80;99.90
12025;DHT22;6073;53.230;10.444;2023-08-17T07:42:39;14.80;99.90
12025;DHT22;6073;53.230;10.444;2023-08-17T07:45:05;14.90;99.90
12025;DHT22;6073;53.230;10.444;2023-08-17T07:47:34;14.80;99.90
12025;DHT22;6073;53.230;10.444;2023-08-17T07:50:00;14.90;99.90
12025;DHT22;6073;53.230;10.444;2023-08-17T07:52:26;14.90;99.90
12025;DHT22;6073;53.230;10.444;2023-08-17T07:54:51;14.90;99.90
12025;DHT22;6073;53.230;10.444;2023-08-17T07:57:17;14.90;99.90
12025;DHT22;6073;53.230;10.444;2023-08-17T07:59:42;14.90;99.90
12025;DHT22;6073;53.230;10.444;2023-08-17T08:02:08;14.90;99.90
12025;DHT22;6073;53.230;10.444;2023-08-17T08:04:33;14.90;99.90
12025;DHT22;6073;53.230;10.444;2023-08-17T08:06:59;14.90;99.90
12025;DHT22;6073;53.230;10.444;2023-08-17T08:09:24;14.90;99.90
12025;DHT22;6073;53.230;10.444;2023-08-17T08:11:50;14.80;99.90
12025;DHT22;6073;53.230;10.444;2023-08-17T08:14:16;14.90;99.90
12025;DHT22;6073;53.230;10.444;2023-08-17T08:16:42;14.90;99.90
12025;DHT22;6073;53.230;10.444;2023-08-17T08:19:07;14.90;99.90
12025;DHT22;6073;53.230;10.444;2023-08-17T08:21:33;15.00;99.90
12025;DHT22;6073;53.230;10.444;2023-08-17T08:23:58;15.00;99.90
12025;DHT22;6073;53.230;10.444;2023-08-17T08:26:24;15.10;99.90
12025;DHT22;6073;53.230;10.444;2023-08-17T08:28:50;15.10;99.90
12025;DHT22;6073;53.230;10.444;2023-08-17T08:31:15;15.20;99.90
12025;DHT22;6073;53.230;10.444;2023-08-17T08:33:41;15.20;99.90
12025;DHT22;6073;53.230;10.444;2023-08-17T08:36:06;15.30;99.90
12025;DHT22;6073;53.230;10.444;2023-08-17T08:38:32;15.30;99.90
12025;DHT22;6073;53.230;10.444;2023-08-17T08:40:58;15.30;99.90
12025;DHT22;6073;53.230;10.444;2023-08-17T08:43:25;15.30;99.90
12025;DHT22;6073;53.230;10.444;2023-08-17T08:45:51;15.30;99.90
12025;DHT22;6073;53.230;10.444;2023-08-17T08:48:18;15.30;99.90
12025;DHT22;6073;53.230;10.444;2023-08-17T08:50:45;15.40;99.90
12025;DHT22;6073;53.230;10.444;2023-08-17T08:53:15;15.40;99.90
12025;DHT22;6073;53.230;10.444;2023-08-17T08:55:49;15.40;99.90
12025;DHT22;6073;53.230;10.444;2023-08-17T08:58:17;15.50;99.90
12025;DHT22;6073;53.230;10.444;2023-08-17T09:00:46;15.60;99.90
12025;DHT22;6073;53.230;10.444;2023-08-17T09:03:14;15.60;99.90
12025;DHT22;6073;53.230;10.444;2023-08-17T09:05:41;15.60;99.90
12025;DHT22;6073;53.230;10.444;2023-08-17T09:08:08;15.70;99.90
12025;DHT22;6073;53.230;10.444;2023-08-17T09:10:35;15.70;99.90
12025;DHT22;6073;53.230;10.444;2023-08-17T09:13:00;15.80;99.90
12025;DHT22;6073;53.230;10.444;2023-08-17T09:15:26;15.70;99.90
12025;DHT22;6073;53.230;10.444;2023-08-17T09:17:51;15.80;99.90
12025;DHT22;6073;53.230;10.444;2023-08-17T09:20:37;15.70;99.90
12025;DHT22;6073;53.230;10.444;2023-08-17T09:23:10;15.70;99.90
12025;DHT22;6073;53.230;10.444;2023-08-17T09:25:40;15.70;99.90
12025;DHT22;6073;53.230;10.444;2023-08-17T09:28:09;15.80;99.90
12025;DHT22;6073;53.230;10.444;2023-08-17T09:30:57;15.80;99.90
12025;DHT22;6073;53.230;10.444;2023-08-17T09:33:26;15.70;99.90
12025;DHT22;6073;53.230;10.444;2023-08-17T09:35:53;15.80;99.90
12025;DHT22;6073;53.230;10.444;2023-08-17T09:38:19;15.80;99.90
12025;DHT22;6073;53.230;10.444;2023-08-17T09:40:46;15.80;99.90
12025;DHT22;6073;53.230;10.444;2023-08-17T09:43:11;15.80;99.90
12025;DHT22;6073;53.230;10.444;2023-08-17T09:45:39;15.80;99.90
12025;DHT22;6073;53.230;10.444;2023-08-17T09:48:06;15.80;99.90
12025;DHT22;6073;53.230;10.444;2023-08-17T09:50:31;15.80;99.90
12025;DHT22;6073;53.230;10.444;2023-08-17T09:52:57;15.80;99.90
12025;DHT22;6073;53.230;10.444;2023-08-17T09:55:23;15.80;99.90
12025;DHT22;6073;53.230;10.444;2023-08-17T09:57:50;15.70;99.90
12025;DHT22;6073;53.230;10.444;2023-08-17T10:00:16;15.60;99.90
12025;DHT22;6073;53.230;10.444;2023-08-17T10:02:44;15.70;99.90
12025;DHT22;6073;53.230;10.444;2023-08-17T10:05:11;15.70;99.90
12025;DHT22;6073;53.230;10.444;2023-08-17T10:07:41;15.70;99.90
12025;DHT22;6073;53.230;10.444;2023-08-17T10:10:09;15.60;99.90
12025;DHT22;6073;53.230;10.444;2023-08-17T10:12:49;15.60;99.90
12025;DHT22;6073;53.230;10.444;2023-08-17T10:15:18;15.50;99.90
12025;DHT22;6073;53.230;10.444;2023-08-17T10:18:00;15.60;99.90
12025;DHT22;6073;53.230;10.444;2023-08-17T10:20:30;15.60;99.90
12025;DHT22;6073;53.230;10.444;2023-08-17T10:23:19;15.60;99.90
12025;DHT22;6073;53.230;10.444;2023-08-17T10:25:47;15.60;99.90
12025;DHT22;6073;53.230;10.444;2023-08-17T10:28:15;15.60;99.90
12025;DHT22;6073;53.230;10.444;2023-08-17T10:30:42;15.70;99.90
12025;DHT22;6073;53.230;10.444;2023-08-17T10:33:08;15.70;99.90
12025;DHT22;6073;53.230;10.444;2023-08-17T10:35:35;15.60;99.90
12025;DHT22;6073;53.230;10.444;2023-08-17T10:38:03;15.50;99.90
12025;DHT22;6073;53.230;10.444;2023-08-17T10:40:35;15.50;99.90
12025;DHT22;6073;53.230;10.444;2023-08-17T10:43:01;15.50;99.90
12025;DHT22;6073;53.230;10.444;2023-08-17T10:45:29;15.40;99.90
12025;DHT22;6073;53.230;10.444;2023-08-17T10:50:35;15.40;99.90
12025;DHT22;6073;53.230;10.444;2023-08-17T10:53:08;15.40;99.90
12025;DHT22;6073;53.230;10.444;2023-08-17T10:56:00;15.40;99.90
12025;DHT22;6073;53.230;10.444;2023-08-17T10:58:25;15.40;99.90
12025;DHT22;6073;53.230;10.444;2023-08-17T11:00:55;15.40;99.90
12025;DHT22;6073;53.230;10.444;2023-08-17T11:03:22;15.50;99.90
12025;DHT22;6073;53.230;10.444;2023-08-17T11:05:52;15.50;99.90
12025;DHT22;6073;53.230;10.444;2023-08-17T11:08:32;15.60;99.90
12025;DHT22;6073;53.230;10.444;2023-08-17T11:13:35;15.60;99.90
12025;DHT22;6073;53.230;10.444;2023-08-17T11:16:02;15.60;99.90
12025;DHT22;6073;53.230;10.444;2023-08-17T11:18:28;15.50;99.90
12025;DHT22;6073;53.230;10.444;2023-08-17T11:20:55;15.50;99.90
12025;DHT22;6073;53.230;10.444;2023-08-17T11:23:21;15.50;99.90
12025;DHT22;6073;53.230;10.444;2023-08-17T11:25:48;15.50;99.90
12025;DHT22;6073;53.230;10.444;2023-08-17T11:28:13;15.50;99.90
12025;DHT22;6073;53.230;10.444;2023-08-17T11:30:40;15.50;99.90
12025;DHT22;6073;53.230;10.444;2023-08-17T11:33:08;15.50;99.90
12025;DHT22;6073;53.230;10.444;2023-08-17T11:35:34;15.50;99.90
12025;DHT22;6073;53.230;10.444;2023-08-17T11:38:00;15.50;99.90
12025;DHT22;6073;53.230;10.444;2023-08-17T11:40:26;15.60;99.90
12025;DHT22;6073;53.230;10.444;2023-08-17T11:42:51;15.50;99.90
12025;DHT22;6073;53.230;10.444;2023-08-17T11:45:18;15.60;99.90
12025;DHT22;6073;53.230;10.444;2023-08-17T11:47:43;15.70;99.90
12025;DHT22;6073;53.230;10.444;2023-08-17T11:50:10;15.70;99.90
12025;DHT22;6073;53.230;10.444;2023-08-17T11:52:36;15.80;99.90
12025;DHT22;6073;53.230;10.444;2023-08-17T11:55:06;15.80;99.90
12025;DHT22;6073;53.230;10.444;2023-08-17T11:57:33;15.80;99.90
12025;DHT22;6073;53.230;10.444;2023-08-17T12:00:00;15.90;99.90
12025;DHT22;6073;53.230;10.444;2023-08-17T12:02:27;15.90;99.90
12025;DHT22;6073;53.230;10.444;2023-08-17T12:04:55;16.00;99.90
12025;DHT22;6073;53.230;10.444;2023-08-17T12:07:25;16.00;99.90
12025;DHT22;6073;53.230;10.444;2023-08-17T12:09:51;16.00;99.90
12025;DHT22;6073;53.230;10.444;2023-08-17T12:12:21;16.10;99.90
12025;DHT22;6073;53.230;10.444;2023-08-17T12:14:50;16.10;99.90
12025;DHT22;6073;53.230;10.444;2023-08-17T12:17:19;16.20;99.90
12025;DHT22;6073;53.230;10.444;2023-08-17T12:19:49;16.20;99.90
12025;DHT22;6073;53.230;10.444;2023-08-17T12:22:15;16.20;99.90
12025;DHT22;6073;53.230;10.444;2023-08-17T12:24:41;16.20;99.90
12025;DHT22;6073;53.230;10.444;2023-08-17T12:27:07;16.10;99.90
12025;DHT22;6073;53.230;10.444;2023-08-17T12:29:33;16.10;99.90
12025;DHT22;6073;53.230;10.444;2023-08-17T12:32:01;16.10;99.90
12025;DHT22;6073;53.230;10.444;2023-08-17T12:34:27;16.20;99.90
12025;DHT22;6073;53.230;10.444;2023-08-17T12:36:52;16.10;99.90
12025;DHT22;6073;53.230;10.444;2023-08-17T12:39:18;16.10;99.90
12025;DHT22;6073;53.230;10.444;2023-08-17T12:41:44;16.20;99.90
12025;DHT22;6073;53.230;10.444;2023-08-17T12:44:09;16.20;99.90
12025;DHT22;6073;53.230;10.444;2023-08-17T12:46:39;16.20;99.90
12025;DHT22;6073;53.230;10.444;2023-08-17T12:49:04;16.30;99.90
12025;DHT22;6073;53.230;10.444;2023-08-17T12:51:30;16.30;99.90
12025;DHT22;6073;53.230;10.444;2023-08-17T12:53:55;16.30;99.90
12025;DHT22;6073;53.230;10.444;2023-08-17T12:56:21;16.40;99.90
12025;DHT22;6073;53.230;10.444;2023-08-17T12:58:47;16.40;99.90
12025;DHT22;6073;53.230;10.444;2023-08-17T13:01:12;16.30;99.90
12025;DHT22;6073;53.230;10.444;2023-08-17T13:03:39;16.40;99.90
12025;DHT22;6073;53.230;10.444;2023-08-17T13:06:04;16.50;99.90
12025;DHT22;6073;53.230;10.444;2023-08-17T13:08:30;16.40;99.90
12025;DHT22;6073;53.230;10.444;2023-08-17T13:10:56;16.30;99.90
12025;DHT22;6073;53.230;10.444;2023-08-17T13:13:21;16.40;99.90
12025;DHT22;6073;53.230;10.444;2023-08-17T13:15:47;16.30;99.90
12025;DHT22;6073;53.230;10.444;2023-08-17T13:18:12;16.30;99.90
12025;DHT22;6073;53.230;10.444;2023-08-17T13:20:38;16.30;99.90
12025;DHT22;6073;53.230;10.444;2023-08-17T13:23:05;16.20;99.90
12025;DHT22;6073;53.230;10.444;2023-08-17T13:25:31;16.10;99.90
12025;DHT22;6073;53.230;10.444;2023-08-17T13:27:57;16.10;99.90
12025;DHT22;6073;53.230;10.444;2023-08-17T13:30:22;16.00;99.90
12025;DHT22;6073;53.230;10.444;2023-08-17T13:32:48;16.10;99.90
12025;DHT22;6073;53.230;10.444;2023-08-17T13:35:14;16.00;99.90
12025;DHT22;6073;53.230;10.444;2023-08-17T13:37:40;16.00;99.90
12025;DHT22;6073;53.230;10.444;2023-08-17T13:40:07;16.00;99.90
12025;DHT22;6073;53.230;10.444;2023-08-17T13:42:33;16.00;99.90
12025;DHT22;6073;53.230;10.444;2023-08-17T13:44:59;16.00;99.90
12025;DHT22;6073;53.230;10.444;2023-08-17T13:47:25;16.00;99.90
12025;DHT22;6073;53.230;10.444;2023-08-17T13:49:51;16.10;99.90
12025;DHT22;6073;53.230;10.444;2023-08-17T13:52:16;16.10;99.90
12025;DHT22;6073;53.230;10.444;2023-08-17T13:54:42;16.10;99.90
12025;DHT22;6073;53.230;10.444;2023-08-17T13:57:07;16.10;99.90
12025;DHT22;6073;53.230;10.444;2023-08-17T13:59:33;16.20;99.90
12025;DHT22;6073;53.230;10.444;2023-08-17T14:01:58;16.10;99.90
12025;DHT22;6073;53.230;10.444;2023-08-17T14:04:24;16.20;99.90
12025;DHT22;6073;53.230;10.444;2023-08-17T14:06:49;16.20;99.90
12025;DHT22;6073;53.230;10.444;2023-08-17T14:09:16;16.20;99.90
12025;DHT22;6073;53.230;10.444;2023-08-17T14:11:42;16.30;99.90
12025;DHT22;6073;53.230;10.444;2023-08-17T14:14:07;16.30;99.90
12025;DHT22;6073;53.230;10.444;2023-08-17T14:16:33;16.40;99.90
12025;DHT22;6073;53.230;10.444;2023-08-17T14:18:59;16.40;99.90
12025;DHT22;6073;53.230;10.444;2023-08-17T14:21:24;16.40;99.90
12025;DHT22;6073;53.230;10.444;2023-08-17T14:23:50;16.40;99.90
12025;DHT22;6073;53.230;10.444;2023-08-17T14:26:15;16.40;99.90
12025;DHT22;6073;53.230;10.444;2023-08-17T14:28:41;16.40;99.90
12025;DHT22;6073;53.230;10.444;2023-08-17T14:31:06;16.40;99.90
12025;DHT22;6073;53.230;10.444;2023-08-17T14:33:32;16.50;99.90
12025;DHT22;6073;53.230;10.444;2023-08-17T14:35:57;16.50;99.90
12025;DHT22;6073;53.230;10.444;2023-08-17T14:38:23;16.50;99.90
12025;DHT22;6073;53.230;10.444;2023-08-17T14:40:49;16.50;99.90
12025;DHT22;6073;53.230;10.444;2023-08-17T14:43:15;16.60;99.90
12025;DHT22;6073;53.230;10.444;2023-08-17T14:45:42;16.60;99.90
12025;DHT22;6073;53.230;10.444;2023-08-17T14:48:08;16.60;99.90
12025;DHT22;6073;53.230;10.444;2023-08-17T14:50:35;16.70;99.90
12025;DHT22;6073;53.230;10.444;2023-08-17T14:53:01;16.80;99.90
12025;DHT22;6073;53.230;10.444;2023-08-17T14:55:29;16.90;99.90
12025;DHT22;6073;53.230;10.444;2023-08-17T14:57:55;17.00;99.90
12025;DHT22;6073;53.230;10.444;2023-08-17T15:00:20;17.00;99.90
12025;DHT22;6073;53.230;10.444;2023-08-17T15:02:46;16.90;99.90
12025;DHT22;6073;53.230;10.444;2023-08-17T15:05:11;16.90;99.90
12025;DHT22;6073;53.230;10.444;2023-08-17T15:07:37;16.90;99.90
12025;DHT22;6073;53.230;10.444;2023-08-17T15:10:02;16.90;99.90
12025;DHT22;6073;53.230;10.444;2023-08-17T15:12:28;16.80;99.90
12025;DHT22;6073;53.230;10.444;2023-08-17T15:14:53;16.80;99.90
12025;DHT22;6073;53.230;10.444;2023-08-17T15:17:19;16.70;99.90
12025;DHT22;6073;53.230;10.444;2023-08-17T15:19:45;16.70;99.90
12025;DHT22;6073;53.230;10.444;2023-08-17T15:22:10;16.70;99.90
12025;DHT22;6073;53.230;10.444;2023-08-17T15:24:36;16.70;99.90
12025;DHT22;6073;53.230;10.444;2023-08-17T15:27:01;16.60;99.90
12025;DHT22;6073;53.230;10.444;2023-08-17T15:29:27;16.60;99.90
12025;DHT22;6073;53.230;10.444;2023-08-17T15:31:52;16.60;99.90